Time;durP1;ratioP1;P1;durP2;ratioP2;P2;SDS_P1;SDS_P2;PMS_P1;PMS_P2;Temp;Humidity;BMP_temperature;BMP_pressure;BME280_temperature;BME280_humidity;BME280_pressure;Samples;Min_cycle;Max_cycle;Signal;HPM_P1;HPM_P2
2022/04/04 00:00:51;;;;;;;5.67;4.70;;;;;;;-4.11;79.40;95842.28;6071494;23;20180;-85
2022/04/04 00:03:17;;;;;;;12.70;7.17;;;;;;;-4.01;79.56;95848.69;6070919;23;20160;-85
2022/04/04 00:05:42;;;;;;;11.33;7.10;;;;;;;-4.10;80.52;95843.09;6095766;23;20173;-84
2022/04/04 00:08:08;;;;;;;7.27;5.20;;;;;;;-4.12;79.69;95837.25;6072441;23;20156;-84
2022/04/04 00:10:34;;;;;;;5.03;4.03;;;;;;;-4.03;77.92;95837.78;6071700;23;20464;-85
2022/04/04 00:12:59;;;;;;;6.23;3.53;;;;;;;-3.92;76.13;95836.56;6070866;23;20611;-82
2022/04/04 00:15:24;;;;;;;5.53;3.47;;;;;;;-3.69;73.67;95836.59;6069991;23;20181;-83
2022/04/04 00:17:50;;;;;;;6.40;3.63;;;;;;;-3.59;74.37;95837.91;6095594;23;20160;-84
2022/04/04 00:20:16;;;;;;;6.33;3.40;;;;;;;-3.62;75.09;95839.72;6095781;23;20248;-85
2022/04/04 00:22:42;;;;;;;4.50;3.03;;;;;;;-3.67;75.68;95834.00;6095346;23;20187;-83
2022/04/04 00:25:08;;;;;;;3.53;2.87;;;;;;;-3.81;76.09;95834.47;6070850;23;20227;-84
2022/04/04 00:27:34;;;;;;;5.40;3.73;;;;;;;-3.76;75.84;95833.44;6071180;23;20168;-85
2022/04/04 00:29:59;;;;;;;4.10;3.37;;;;;;;-3.77;76.84;95839.41;6095336;23;20165;-83
2022/04/04 00:32:25;;;;;;;4.67;3.57;;;;;;;-3.85;76.30;95846.44;6094647;23;20164;-83
2022/04/04 00:34:50;;;;;;;3.70;3.20;;;;;;;-3.80;74.93;95842.06;6094751;23;20165;-84
2022/04/04 00:37:15;;;;;;;6.97;3.90;;;;;;;-3.75;74.57;95834.25;6071016;23;20507;-84
2022/04/04 00:39:41;;;;;;;4.03;3.53;;;;;;;-3.70;74.84;95834.94;6070975;23;20243;-84
2022/04/04 00:42:06;;;;;;;3.97;3.23;;;;;;;-3.83;75.42;95842.13;6070491;23;20164;-83
2022/04/04 00:44:32;;;;;;;8.17;3.33;;;;;;;-3.88;76.48;95838.13;6047485;23;20164;-84
2022/04/04 00:46:58;;;;;;;4.07;3.33;;;;;;;-3.91;76.93;95836.50;6046879;23;20232;-83
2022/04/04 00:49:23;;;;;;;4.03;3.33;;;;;;;-3.67;76.37;95834.00;6071369;23;20171;-84
2022/04/04 00:51:49;;;;;;;5.87;3.77;;;;;;;-3.76;76.63;95832.59;6070390;23;20165;-84
2022/04/04 00:54:14;;;;;;;4.90;3.70;;;;;;;-3.71;76.96;95829.03;6094970;23;20157;-83
2022/04/04 00:56:40;;;;;;;4.53;3.67;;;;;;;-3.68;76.05;95832.34;6070479;23;20207;-84
2022/04/04 00:59:06;;;;;;;4.70;3.63;;;;;;;-3.73;76.13;95830.78;6046708;23;20153;-83
2022/04/04 01:01:34;;;;;;;4.77;3.57;;;;;;;-3.73;76.89;95824.88;6046130;23;20160;-84
2022/04/04 01:03:59;;;;;;;4.23;3.53;;;;;;;-3.81;77.85;95825.16;6047191;23;20171;-84
2022/04/04 01:06:25;;;;;;;5.13;3.87;;;;;;;-3.95;78.98;95821.47;6094874;23;20174;-85
2022/04/04 01:08:50;;;;;;;4.33;3.30;;;;;;;-3.89;78.49;95823.75;6071052;23;20211;-83
2022/04/04 01:11:16;;;;;;;5.03;3.50;;;;;;;-3.94;79.25;95835.78;6070011;23;20191;-84
2022/04/04 01:13:46;;;;;;;5.60;4.13;;;;;;;-3.94;79.61;95828.19;6094612;23;20152;-84
2022/04/04 01:16:11;;;;;;;5.97;4.20;;;;;;;-4.05;80.28;95826.03;6069276;23;20179;-83
2022/04/04 01:18:36;;;;;;;5.17;3.90;;;;;;;-4.04;80.40;95825.97;6070408;23;20172;-82
2022/04/04 01:21:02;;;;;;;6.27;4.00;;;;;;;-4.04;80.14;95820.06;6070620;23;20180;-83
2022/04/04 01:23:34;;;;;;;6.43;4.27;;;;;;;-4.03;80.01;95820.00;6069761;23;20164;-84
2022/04/04 01:26:00;;;;;;;6.97;4.10;;;;;;;-4.06;80.18;95809.97;6046530;23;20263;-84
2022/04/04 01:28:25;;;;;;;7.30;4.73;;;;;;;-3.99;79.58;95808.03;6070516;23;20202;-84
2022/04/04 01:30:53;;;;;;;5.23;4.70;;;;;;;-4.01;80.84;95804.72;6094290;23;20161;-84
2022/04/04 01:33:19;;;;;;;6.07;4.40;;;;;;;-4.09;80.93;95809.25;6069472;23;20152;-82
2022/04/04 01:35:45;;;;;;;6.37;4.63;;;;;;;-4.10;80.95;95799.97;6046889;23;20195;-83
2022/04/04 01:38:10;;;;;;;6.77;4.97;;;;;;;-4.06;80.47;95796.47;6070747;23;20160;-84
2022/04/04 01:40:36;;;;;;;6.63;4.83;;;;;;;-4.10;81.19;95797.44;6094183;23;20244;-84
2022/04/04 01:43:01;;;;;;;6.43;5.30;;;;;;;-4.10;80.97;95795.72;6095197;23;20157;-84
2022/04/04 01:48:10;;;;;;;5.77;4.70;;;;;;;-3.99;81.06;95788.56;6094718;23;20494;-84
2022/04/04 01:50:36;;;;;;;6.03;4.80;;;;;;;-4.05;81.09;95785.44;6070877;23;20184;-84
2022/04/04 01:55:46;;;;;;;5.30;4.67;;;;;;;-3.99;79.95;95791.09;6074619;23;20182;-82
2022/04/04 01:58:12;;;;;;;6.13;5.07;;;;;;;-4.02;79.27;95785.31;6069937;23;20163;-83
2022/04/04 02:00:38;;;;;;;8.10;5.20;;;;;;;-3.94;79.22;95787.59;6070006;23;20192;-83
2022/04/04 02:03:03;;;;;;;6.10;4.90;;;;;;;-3.91;78.86;95790.84;6069855;23;20240;-84
2022/04/04 02:05:29;;;;;;;8.03;5.17;;;;;;;-3.90;77.79;95778.97;6070410;23;20212;-83
2022/04/04 02:07:54;;;;;;;7.93;5.23;;;;;;;-3.92;78.56;95783.28;6070366;23;20157;-85
2022/04/04 02:10:21;;;;;;;6.17;5.00;;;;;;;-3.87;77.78;95784.78;6094406;23;20623;-85
2022/04/04 02:12:46;;;;;;;8.17;5.13;;;;;;;-3.95;77.69;95781.69;6093619;23;20163;-83
2022/04/04 02:15:13;;;;;;;7.20;5.13;;;;;;;-3.87;77.31;95776.34;6093055;23;20157;-83
2022/04/04 02:17:38;;;;;;;6.50;4.73;;;;;;;-4.00;77.84;95775.94;6094327;23;20180;-82
2022/04/04 02:20:04;;;;;;;6.17;5.07;;;;;;;-3.99;77.16;95777.59;6070102;23;20180;-84
2022/04/04 02:22:29;;;;;;;5.83;5.10;;;;;;;-3.87;76.50;95773.81;6045373;23;20175;-85
2022/04/04 02:24:55;;;;;;;8.73;5.37;;;;;;;-3.89;76.24;95762.88;6070393;23;20160;-82
2022/04/04 02:27:20;;;;;;;6.70;4.57;;;;;;;-3.86;76.48;95766.13;6093918;23;20231;-84
2022/04/04 02:29:45;;;;;;;6.67;5.00;;;;;;;-3.83;75.80;95763.47;6071417;23;20476;-84
2022/04/04 02:32:10;;;;;;;7.57;4.73;;;;;;;-3.75;75.61;95761.50;6096223;23;20164;-84
2022/04/04 02:34:36;;;;;;;7.63;5.80;;;;;;;-3.77;76.34;95755.66;6097941;23;20156;-83
2022/04/04 02:37:01;;;;;;;6.30;4.87;;;;;;;-3.84;75.98;95751.69;6072078;23;20492;-84
2022/04/04 02:39:26;;;;;;;7.07;4.33;;;;;;;-3.81;76.13;95751.56;6072365;23;20690;-84
2022/04/04 02:41:52;;;;;;;5.20;4.70;;;;;;;-3.83;74.88;95755.88;6072300;23;20160;-85
2022/04/04 02:44:17;;;;;;;7.63;5.00;;;;;;;-3.81;75.07;95751.56;6073165;23;20171;-84
2022/04/04 02:46:42;;;;;;;5.50;4.90;;;;;;;-3.89;75.59;95751.00;6096630;23;20183;-84
2022/04/04 02:49:07;;;;;;;6.83;4.87;;;;;;;-3.86;76.55;95753.44;6072090;23;20608;-84
2022/04/04 02:51:33;;;;;;;5.80;4.57;;;;;;;-3.93;74.67;95752.00;6072587;23;20160;-84
2022/04/04 02:53:58;;;;;;;5.43;4.23;;;;;;;-3.80;74.56;95743.09;6097384;23;20172;-84
2022/04/04 02:56:29;;;;;;;4.80;4.30;;;;;;;-3.91;74.90;95744.34;6072316;23;20176;-84
2022/04/04 02:58:56;;;;;;;6.40;4.17;;;;;;;-4.00;75.05;95750.56;6096822;23;20141;-85
2022/04/04 03:01:22;;;;;;;4.10;3.60;;;;;;;-3.92;75.13;95746.06;6047917;23;20181;-84
2022/04/04 03:03:47;;;;;;;7.47;4.80;;;;;;;-3.98;75.42;95741.19;6096779;23;20159;-83
2022/04/04 03:06:13;;;;;;;5.37;4.30;;;;;;;-4.08;75.47;95745.78;6071685;23;20180;-83
2022/04/04 03:08:38;;;;;;;8.00;4.83;;;;;;;-4.08;76.58;95748.31;6070942;23;20539;-83
2022/04/04 03:11:04;;;;;;;6.43;4.50;;;;;;;-3.97;76.25;95740.34;6095194;23;20156;-83
2022/04/04 03:13:29;;;;;;;5.97;4.27;;;;;;;-3.90;76.33;95746.81;6071215;23;20162;-84
2022/04/04 03:15:54;;;;;;;7.13;4.33;;;;;;;-4.03;75.92;95748.97;6070132;23;20181;-83
2022/04/04 03:18:20;;;;;;;5.07;4.57;;;;;;;-4.02;75.59;95748.09;6073298;23;20167;-83
2022/04/04 03:20:45;;;;;;;5.73;4.70;;;;;;;-4.03;75.55;95743.09;6098428;23;20197;-84
2022/04/04 03:23:10;;;;;;;7.10;4.87;;;;;;;-4.05;75.29;95739.78;6097749;23;20514;-83
2022/04/04 03:25:36;;;;;;;6.20;4.97;;;;;;;-4.04;75.20;95738.91;6073224;23;20600;-83
2022/04/04 03:28:01;;;;;;;8.23;5.00;;;;;;;-4.02;75.51;95743.03;6098386;23;20462;-83
2022/04/04 03:30:28;;;;;;;5.70;4.57;;;;;;;-4.06;76.02;95741.50;6073402;23;20646;-84
2022/04/04 03:32:57;;;;;;;6.73;5.40;;;;;;;-4.05;75.10;95737.25;6072641;23;20164;-83
2022/04/04 03:35:23;;;;;;;7.00;5.50;;;;;;;-4.07;75.43;95734.75;6049874;23;20185;-84
2022/04/04 03:37:51;;;;;;;6.53;5.33;;;;;;;-4.03;75.30;95741.38;6049771;23;20605;-85
2022/04/04 03:40:18;;;;;;;5.83;5.03;;;;;;;-4.14;76.28;95737.56;6073412;23;20235;-83
2022/04/04 03:42:45;;;;;;;5.93;4.93;;;;;;;-4.17;76.38;95738.50;6049664;23;20648;-84
2022/04/04 03:45:12;;;;;;;7.03;5.00;;;;;;;-4.10;76.83;95734.03;6074274;23;20156;-85
2022/04/04 03:47:41;;;;;;;6.23;5.20;;;;;;;-4.11;76.47;95737.47;6099898;23;20207;-84
2022/04/04 03:50:12;;;;;;;8.80;5.67;;;;;;;-4.12;76.69;95735.81;6051998;23;20496;-84
2022/04/04 03:52:37;;;;;;;7.00;5.40;;;;;;;-4.07;76.34;95736.44;6075496;23;20140;-84
2022/04/04 03:55:03;;;;;;;6.77;5.37;;;;;;;-4.16;76.21;95735.06;6076212;23;20157;-85
2022/04/04 03:57:29;;;;;;;8.40;5.20;;;;;;;-4.12;77.04;95738.34;6101890;23;20244;-85
2022/04/04 03:59:54;;;;;;;6.57;5.30;;;;;;;-4.17;77.18;95730.88;6052419;23;20180;-84
2022/04/04 04:02:19;;;;;;;8.50;5.73;;;;;;;-4.09;77.03;95739.03;6100053;23;20153;-86
2022/04/04 04:04:45;;;;;;;8.87;5.10;;;;;;;-4.09;77.14;95735.69;6074545;23;20165;-83
2022/04/04 04:07:15;;;;;;;8.07;5.40;;;;;;;-4.10;77.13;95739.09;6099199;23;20706;-86
2022/04/04 04:09:40;;;;;;;8.83;5.53;;;;;;;-4.06;77.17;95730.53;6074862;23;20141;-86
2022/04/04 04:12:06;;;;;;;6.80;5.47;;;;;;;-4.16;77.51;95724.09;6098546;23;20499;-86
2022/04/04 04:14:32;;;;;;;7.00;5.50;;;;;;;-4.14;77.60;95722.34;6048050;23;20611;-81
2022/04/04 04:16:57;;;;;;;7.67;5.37;;;;;;;-4.12;77.56;95720.59;6096857;23;20173;-87
2022/04/04 04:22:07;;;;;;;6.53;5.53;;;;;;;-4.18;78.13;95706.41;6096174;23;20487;-85
2022/04/04 04:24:32;;;;;;;8.97;6.33;;;;;;;-4.28;78.32;95716.06;6074458;23;20165;-87
2022/04/04 04:26:57;;;;;;;7.03;5.47;;;;;;;-4.21;78.29;95715.84;6074425;23;20232;-87
2022/04/04 04:29:22;;;;;;;8.30;5.73;;;;;;;-4.22;77.88;95717.56;6074012;23;20172;-87
2022/04/04 04:31:48;;;;;;;8.03;5.57;;;;;;;-4.20;77.41;95712.44;6073714;23;20160;-86
2022/04/04 04:34:13;;;;;;;8.03;5.73;;;;;;;-4.18;77.72;95710.66;6074181;23;20165;-87
2022/04/04 04:36:39;;;;;;;7.17;5.70;;;;;;;-4.22;77.71;95706.59;6074291;23;20198;-85
2022/04/04 04:39:06;;;;;;;7.20;5.97;;;;;;;-4.23;77.28;95705.75;6098822;23;20195;-87
2022/04/04 04:41:31;;;;;;;5.97;5.33;;;;;;;-4.23;77.06;95707.47;6049796;23;20311;-86
2022/04/04 04:43:56;;;;;;;18.87;12.23;;;;;;;-4.27;78.03;95705.03;6076215;23;20247;-85
2022/04/04 04:46:21;;;;;;;20.37;11.37;;;;;;;-4.29;78.06;95706.78;6050771;23;20184;-86
2022/04/04 04:48:47;;;;;;;11.63;6.73;;;;;;;-4.31;77.51;95715.34;6050818;23;20160;-87
2022/04/04 04:51:12;;;;;;;8.73;5.77;;;;;;;-4.21;77.15;95715.84;6095845;23;20483;-87
2022/04/04 04:53:38;;;;;;;5.90;5.00;;;;;;;-4.17;76.59;95702.16;6073673;23;20160;-85
2022/04/04 04:56:03;;;;;;;6.67;5.03;;;;;;;-4.22;77.50;95706.59;6072629;23;20176;-85
2022/04/04 04:58:30;;;;;;;8.03;5.97;;;;;;;-4.24;77.78;95705.78;6072964;23;20934;-87
2022/04/04 05:00:55;;;;;;;8.77;6.60;;;;;;;-4.04;76.57;95701.69;6073370;23;20264;-85
2022/04/04 05:03:27;;;;;;;11.17;6.03;;;;;;;-4.04;76.32;95704.22;6096785;23;20741;-86
2022/04/04 05:05:53;;;;;;;7.27;5.83;;;;;;;-4.04;76.14;95704.22;6074315;23;20188;-85
2022/04/04 05:08:19;;;;;;;8.47;5.77;;;;;;;-4.09;75.77;95703.53;6073673;23;20153;-86
2022/04/04 05:10:44;;;;;;;7.43;5.03;;;;;;;-4.03;75.84;95703.31;6076822;23;20167;-84
2022/04/04 05:13:10;;;;;;;7.90;5.73;;;;;;;-3.99;75.52;95701.50;6095698;23;20157;-83
2022/04/04 05:15:35;;;;;;;6.97;5.50;;;;;;;-3.96;75.35;95698.03;6098335;23;20635;-87
2022/04/04 05:18:00;;;;;;;7.53;5.60;;;;;;;-4.05;76.08;95699.19;6073389;23;20546;-87
2022/04/04 05:20:26;;;;;;;6.50;5.40;;;;;;;-4.01;75.73;95704.09;6072241;23;20180;-88
2022/04/04 05:22:51;;;;;;;7.97;5.83;;;;;;;-3.89;75.63;95700.25;6071834;23;20159;-87
2022/04/04 05:25:17;;;;;;;7.93;5.27;;;;;;;-3.83;75.21;95706.84;6073796;23;20159;-85
2022/04/04 05:27:42;;;;;;;6.80;5.53;;;;;;;-3.81;74.93;95703.34;6074252;23;20216;-84
2022/04/04 05:30:08;;;;;;;12.23;5.70;;;;;;;-3.66;73.86;95709.56;6097118;23;20165;-85
2022/04/04 05:32:34;;;;;;;8.20;5.60;;;;;;;-3.53;73.30;95703.16;6050217;23;20161;-86
2022/04/04 05:35:00;;;;;;;6.73;5.60;;;;;;;-3.55;73.12;95702.34;6098768;23;20161;-85
2022/04/04 05:37:25;;;;;;;7.83;6.30;;;;;;;-3.48;73.19;95703.78;6074574;23;20556;-85
2022/04/04 05:39:51;;;;;;;8.17;5.43;;;;;;;-3.40;72.62;95707.75;6097696;23;20191;-85
2022/04/04 05:42:16;;;;;;;7.03;5.53;;;;;;;-3.34;73.21;95707.50;6095853;23;20595;-84
2022/04/04 05:44:42;;;;;;;5.30;4.80;;;;;;;-3.45;73.12;95706.19;6073961;23;20185;-85
2022/04/04 05:47:13;;;;;;;6.77;5.80;;;;;;;-3.48;73.22;95708.03;6094352;23;20176;-85
2022/04/04 05:49:40;;;;;;;6.27;5.23;;;;;;;-3.30;72.87;95711.56;6073053;23;20149;-84
2022/04/04 05:52:10;;;;;;;8.40;5.07;;;;;;;-3.21;72.30;95706.13;6072184;23;20141;-92
2022/04/04 05:54:59;;;;;;;7.87;5.67;;;;;;;-3.05;71.86;95699.56;6075023;23;20501;-92
2022/04/04 05:57:26;;;;;;;9.03;6.17;;;;;;;-2.96;71.87;95705.97;6075241;23;20180;-87
2022/04/04 05:59:54;;;;;;;6.27;5.23;;;;;;;-2.89;71.05;95710.75;6048002;23;20184;-85
2022/04/04 06:02:20;;;;;;;7.37;5.80;;;;;;;-3.01;71.81;95707.84;6050737;23;20172;-85
2022/04/04 06:04:46;;;;;;;6.97;5.70;;;;;;;-2.86;71.70;95707.25;6098576;23;20227;-86
2022/04/04 06:07:11;;;;;;;7.23;5.50;;;;;;;-2.66;71.28;95703.88;6050518;23;20219;-85
2022/04/04 06:09:37;;;;;;;8.10;5.00;;;;;;;-2.77;71.57;95700.97;6075252;23;20647;-84
2022/04/04 06:12:03;;;;;;;8.00;5.40;;;;;;;-2.65;71.63;95705.53;6100380;23;20160;-84
2022/04/04 06:14:28;;;;;;;7.33;6.03;;;;;;;-2.78;71.77;95697.59;6077534;23;20156;-85
2022/04/04 06:16:53;;;;;;;7.30;5.40;;;;;;;-2.63;71.81;95704.59;6076154;23;20184;-85
2022/04/04 06:19:19;;;;;;;7.40;5.60;;;;;;;-2.63;72.18;95703.75;6076460;23;20164;-86
2022/04/04 06:21:45;;;;;;;7.13;5.40;;;;;;;-2.45;71.50;95710.63;6078510;23;20230;-86
2022/04/04 06:24:10;;;;;;;7.90;6.00;;;;;;;-2.29;71.21;95705.69;6079458;23;20184;-85
2022/04/04 06:26:36;;;;;;;6.50;5.40;;;;;;;-2.13;70.81;95698.19;6077636;23;20631;-85
2022/04/04 06:29:01;;;;;;;6.80;5.60;;;;;;;-2.06;70.44;95702.97;6077909;23;20630;-85
2022/04/04 06:31:26;;;;;;;7.57;5.17;;;;;;;-1.96;70.89;95705.09;6103089;23;20145;-86
2022/04/04 06:33:52;;;;;;;5.93;5.33;;;;;;;-1.95;71.07;95704.19;6080026;23;20161;-85
2022/04/04 06:36:17;;;;;;;6.63;5.30;;;;;;;-1.98;70.09;95706.88;6078103;23;20247;-85
2022/04/04 06:38:42;;;;;;;5.70;5.03;;;;;;;-1.87;70.87;95700.41;6076011;23;20160;-85
2022/04/04 06:41:08;;;;;;;7.27;6.00;;;;;;;-1.76;70.02;95705.88;6078593;23;20203;-85
2022/04/04 06:43:33;;;;;;;7.57;5.27;;;;;;;-1.46;69.54;95706.19;6077725;23;20162;-85
2022/04/04 06:46:00;;;;;;;7.27;5.27;;;;;;;-1.44;70.01;95704.38;6078838;23;20386;-84
2022/04/04 06:48:25;;;;;;;7.97;5.30;;;;;;;-1.50;69.65;95714.03;6101385;23;20153;-83
2022/04/04 06:50:50;;;;;;;7.70;5.37;;;;;;;-1.18;68.77;95702.31;6078516;23;20563;-83
2022/04/04 06:53:15;;;;;;;7.43;6.10;;;;;;;-1.06;69.34;95698.34;6101371;23;20158;-82
2022/04/04 06:55:42;;;;;;;7.17;5.23;;;;;;;-1.10;68.45;95700.25;6078180;23;20181;-83
2022/04/04 06:58:07;;;;;;;7.10;5.57;;;;;;;-0.96;67.91;95699.59;6077886;23;20157;-83
2022/04/04 07:00:35;;;;;;;7.63;5.50;;;;;;;-0.89;67.83;95698.38;6077010;23;20195;-84
2022/04/04 07:03:01;;;;;;;7.03;5.73;;;;;;;-0.63;67.02;95695.34;6076556;23;20217;-83
2022/04/04 07:05:27;;;;;;;8.20;5.77;;;;;;;-0.57;66.93;95699.34;6101173;23;20634;-84
2022/04/04 07:07:52;;;;;;;5.77;4.80;;;;;;;-0.66;66.24;95698.06;6053713;23;20157;-83
2022/04/04 07:10:17;;;;;;;9.43;5.37;;;;;;;-0.39;66.20;95698.41;6102145;23;20155;-84
2022/04/04 07:12:43;;;;;;;6.30;4.70;;;;;;;-0.18;65.59;95695.66;6100341;23;20213;-83
2022/04/04 07:15:10;;;;;;;5.03;4.53;;;;;;;-0.26;65.09;95697.81;6076992;23;20167;-83
2022/04/04 07:17:36;;;;;;;5.93;4.93;;;;;;;-0.28;64.25;95688.47;6054017;23;20193;-83
2022/04/04 07:20:02;;;;;;;7.00;4.77;;;;;;;-0.18;63.43;95688.00;6100367;23;20180;-84
2022/04/04 07:22:33;;;;;;;6.90;4.90;;;;;;;-0.07;63.26;95690.84;6103608;23;20215;-83
2022/04/04 07:24:58;;;;;;;7.07;5.00;;;;;;;0.03;62.09;95689.47;6053133;23;20171;-83
2022/04/04 07:27:24;;;;;;;5.77;4.97;;;;;;;0.19;62.50;95695.41;6076973;23;20234;-83
2022/04/04 07:29:49;;;;;;;5.90;4.73;;;;;;;0.26;61.93;95686.50;6077901;23;20180;-84
2022/04/04 07:32:14;;;;;;;6.00;4.93;;;;;;;0.14;62.04;95687.16;6102561;23;20178;-83
2022/04/04 07:34:40;;;;;;;6.97;5.20;;;;;;;0.36;61.76;95683.47;6104105;23;20224;-83
2022/04/04 07:37:05;;;;;;;5.20;4.43;;;;;;;0.29;61.39;95685.53;6103640;23;20250;-83
2022/04/04 07:39:31;;;;;;;7.13;5.10;;;;;;;0.14;61.24;95686.34;6080628;23;20219;-84
2022/04/04 07:41:56;;;;;;;4.83;4.40;;;;;;;0.31;60.78;95685.44;6102933;23;20206;-83
2022/04/04 07:44:21;;;;;;;5.90;4.80;;;;;;;0.50;61.56;95686.09;6104181;23;20241;-83
2022/04/04 07:46:47;;;;;;;5.27;4.77;;;;;;;0.42;62.02;95689.06;6080238;23;20189;-83
2022/04/04 07:49:12;;;;;;;6.90;4.97;;;;;;;0.54;60.72;95682.47;6090154;23;20214;-83
2022/04/04 07:51:37;;;;;;;7.03;5.23;;;;;;;0.54;61.20;95685.03;6108504;23;20140;-83
2022/04/04 07:54:03;;;;;;;7.33;5.40;;;;;;;0.73;61.35;95677.19;6084750;23;20159;-83
2022/04/04 07:56:29;;;;;;;5.20;4.60;;;;;;;0.59;60.99;95677.94;6107710;23;20789;-82
2022/04/04 07:58:54;;;;;;;7.23;5.10;;;;;;;0.71;60.12;95674.72;6107881;23;20524;-83
2022/04/04 08:01:19;;;;;;;6.67;5.27;;;;;;;0.96;60.38;95673.31;6104371;23;20199;-82
2022/04/04 08:03:45;;;;;;;6.70;4.90;;;;;;;0.93;60.54;95673.50;6104203;23;20469;-83
2022/04/04 08:06:10;;;;;;;7.60;5.20;;;;;;;1.17;59.65;95671.31;6106723;23;20243;-83
2022/04/04 08:08:35;;;;;;;6.77;5.00;;;;;;;1.01;60.57;95664.50;6078898;23;20459;-82
2022/04/04 08:11:03;;;;;;;7.07;5.20;;;;;;;1.04;58.83;95669.44;6103711;23;20156;-82
2022/04/04 08:13:29;;;;;;;9.47;5.80;;;;;;;1.16;59.15;95667.09;6103838;23;20542;-83
2022/04/04 08:15:56;;;;;;;5.70;4.90;;;;;;;1.33;58.66;95665.22;6103323;23;20238;-86
2022/04/04 08:18:21;;;;;;;5.93;5.03;;;;;;;1.41;57.55;95665.59;6079638;23;20223;-85
2022/04/04 08:20:47;;;;;;;5.73;5.10;;;;;;;1.30;57.89;95662.00;6102039;23;20184;-84
2022/04/04 08:23:12;;;;;;;5.90;5.20;;;;;;;1.58;57.56;95666.31;6103317;23;20170;-81
2022/04/04 08:25:38;;;;;;;5.83;5.23;;;;;;;1.52;58.51;95656.47;6104063;23;20227;-81
2022/04/04 08:28:03;;;;;;;7.57;5.30;;;;;;;1.45;56.29;95663.69;6103061;23;20164;-81
2022/04/04 08:30:29;;;;;;;7.07;5.27;;;;;;;1.31;55.94;95664.47;6102726;23;20572;-82
2022/04/04 08:32:54;;;;;;;6.93;5.23;;;;;;;1.49;56.55;95661.75;6128299;23;20171;-83
2022/04/04 08:35:21;;;;;;;7.17;6.00;;;;;;;1.78;56.79;95652.38;6105377;23;20171;-82
2022/04/04 08:37:46;;;;;;;6.50;5.87;;;;;;;1.89;55.94;95661.03;6129865;23;20156;-82
2022/04/04 08:40:13;;;;;;;6.30;5.30;;;;;;;2.04;56.03;95655.91;6102470;23;20681;-83
2022/04/04 08:42:39;;;;;;;6.00;5.33;;;;;;;1.90;54.73;95649.06;6099838;23;20163;-83
2022/04/04 08:45:05;;;;;;;7.33;5.87;;;;;;;2.10;55.70;95658.09;6100832;23;20160;-82
2022/04/04 08:47:31;;;;;;;6.33;5.40;;;;;;;1.98;55.73;95650.25;6101387;23;20594;-82
2022/04/04 08:49:57;;;;;;;6.33;5.70;;;;;;;2.19;56.38;95647.28;6078740;23;20156;-83
2022/04/04 08:52:23;;;;;;;11.40;7.00;;;;;;;2.25;56.03;95641.78;6101222;23;20163;-82
2022/04/04 08:54:49;;;;;;;7.93;6.27;;;;;;;2.70;56.54;95647.50;6103184;23;20179;-83
2022/04/04 08:57:15;;;;;;;7.00;5.80;;;;;;;2.35;53.76;95645.41;6078625;23;20568;-81
2022/04/04 08:59:40;;;;;;;8.97;6.07;;;;;;;2.68;53.44;95637.34;6102953;23;20203;-82
2022/04/04 09:02:05;;;;;;;6.63;6.00;;;;;;;2.86;55.57;95637.09;6104497;23;20174;-81
2022/04/04 09:04:33;;;;;;;8.77;5.90;;;;;;;2.51;52.93;95629.91;6080583;23;20156;-82
2022/04/04 09:07:05;;;;;;;5.93;5.33;;;;;;;2.68;55.20;95632.22;6081091;23;20446;-82
2022/04/04 09:09:39;;;;;;;5.93;5.33;;;;;;;2.98;54.46;95632.00;6104265;23;20167;-82
2022/04/04 09:12:06;;;;;;;6.63;5.50;;;;;;;2.87;53.74;95626.75;6101422;23;20167;-82
2022/04/04 09:14:47;;;;;;;6.73;5.70;;;;;;;3.21;53.08;95632.25;6078592;23;20477;-82
2022/04/04 09:17:13;;;;;;;5.70;4.83;;;;;;;3.08;51.59;95627.91;6126141;23;20234;-81
2022/04/04 09:19:39;;;;;;;6.90;5.60;;;;;;;2.81;51.54;95627.94;6101107;23;20171;-82
2022/04/04 09:22:09;;;;;;;5.67;5.07;;;;;;;3.11;52.61;95621.78;6073904;23;20664;-82
2022/04/04 09:24:42;;;;;;;8.23;5.20;;;;;;;2.82;53.26;95610.81;6100208;23;20393;-82
2022/04/04 09:27:12;;;;;;;7.40;5.20;;;;;;;3.13;51.79;95614.78;6076345;23;20176;-82
2022/04/04 09:29:41;;;;;;;6.03;5.27;;;;;;;3.11;52.21;95611.50;6075972;23;20171;-82
2022/04/04 09:32:11;;;;;;;10.60;7.10;;;;;;;3.40;53.20;95601.88;6099335;23;20160;-82
2022/04/04 09:34:54;;;;;;;6.80;5.57;;;;;;;3.73;52.85;95601.34;6100636;23;20252;-81
2022/04/04 09:37:21;;;;;;;6.20;5.37;;;;;;;3.36;50.71;95590.19;6100038;23;20190;-82
2022/04/04 09:39:48;;;;;;;7.13;5.90;;;;;;;3.54;51.28;95596.66;6075142;23;20239;-81
2022/04/04 09:42:16;;;;;;;7.47;5.63;;;;;;;3.53;51.04;95587.28;6074501;23;20155;-81
2022/04/04 09:44:41;;;;;;;5.67;4.60;;;;;;;3.27;51.34;95593.34;6124453;23;20503;-82
2022/04/04 09:47:06;;;;;;;10.43;7.60;;;;;;;3.49;50.14;95587.59;6098451;23;20207;-81
2022/04/04 09:49:37;;;;;;;5.00;4.50;;;;;;;2.79;51.07;95591.31;6075601;23;20187;-80
2022/04/04 09:52:03;;;;;;;9.33;4.87;;;;;;;3.00;51.73;95588.28;6098876;23;20152;-80
2022/04/04 09:54:29;;;;;;;5.87;4.73;;;;;;;3.02;52.17;95584.72;6051350;23;20282;-82
2022/04/04 09:57:15;;;;;;;4.93;4.47;;;;;;;2.88;51.86;95577.09;6075292;23;20183;-79
2022/04/04 09:59:41;;;;;;;5.17;4.67;;;;;;;3.29;52.99;95574.34;6075115;23;20642;-80
2022/04/04 10:02:07;;;;;;;5.80;4.73;;;;;;;3.64;52.20;95571.97;6122372;23;20206;-80
2022/04/04 10:04:33;;;;;;;5.47;4.30;;;;;;;3.80;51.14;95563.19;6100477;23;20151;-78
2022/04/04 10:07:06;;;;;;;35.20;7.20;;;;;;;3.61;50.17;95563.66;6099306;23;20246;-82
2022/04/04 10:09:32;;;;;;;27.60;6.97;;;;;;;3.36;50.73;95561.94;6099083;23;20168;-82
2022/04/04 10:11:58;;;;;;;5.40;4.90;;;;;;;3.31;50.41;95553.72;6100291;23;20159;-85
2022/04/04 10:14:23;;;;;;;6.70;5.13;;;;;;;3.82;49.47;95556.22;6076973;23;20160;-83
2022/04/04 10:16:51;;;;;;;6.17;4.77;;;;;;;3.44;50.11;95551.13;6076538;23;20203;-84
2022/04/04 10:19:17;;;;;;;4.90;4.40;;;;;;;3.13;50.96;95542.94;6102228;23;20152;-83
2022/04/04 10:21:42;;;;;;;6.37;5.17;;;;;;;3.20;51.21;95539.03;6076802;23;20200;-83
2022/04/04 10:24:09;;;;;;;5.87;5.23;;;;;;;3.29;51.44;95535.03;6127016;23;20152;-85
2022/04/04 10:26:59;;;;;;;6.03;5.30;;;;;;;2.99;50.71;95536.16;6078769;23;20184;-88
2022/04/04 10:29:37;;;;;;;5.70;4.83;;;;;;;3.13;50.93;95523.22;6101219;23;20663;-83
2022/04/04 10:32:05;;;;;;;9.80;6.10;;;;;;;3.53;52.15;95535.09;6126502;23;20145;-83
2022/04/04 10:34:40;;;;;;;6.50;5.63;;;;;;;3.28;50.97;95525.69;6101931;23;20160;-84
2022/04/04 10:37:09;;;;;;;6.47;5.20;;;;;;;3.47;50.53;95520.94;6126225;23;20176;-83
2022/04/04 10:39:49;;;;;;;6.17;5.17;;;;;;;3.74;51.68;95518.22;6079405;23;20160;-82
2022/04/04 10:42:41;;;;;;;7.33;4.87;;;;;;;3.67;51.87;95512.69;6103988;23;20163;-83
2022/04/04 10:45:11;;;;;;;7.13;5.67;;;;;;;3.96;50.73;95517.53;6127013;23;20166;-82
2022/04/04 10:47:39;;;;;;;7.00;6.00;;;;;;;4.12;50.54;95505.25;6124712;23;20156;-81
2022/04/04 10:50:20;;;;;;;7.53;6.70;;;;;;;4.01;50.98;95509.50;6100654;23;20156;-83
2022/04/04 10:52:46;;;;;;;6.30;5.70;;;;;;;3.77;52.50;95501.78;6127670;23;20239;-81
2022/04/04 10:55:27;;;;;;;10.17;5.80;;;;;;;3.77;52.30;95500.03;6102360;23;20736;-81
2022/04/04 10:58:15;;;;;;;16.43;6.87;;;;;;;4.06;52.46;95494.56;6102495;23;20163;-82
2022/04/04 11:01:09;;;;;;;5.70;5.13;;;;;;;3.32;51.61;95497.13;6107612;23;20181;-83
2022/04/04 11:03:52;;;;;;;9.03;5.73;;;;;;;3.11;51.85;95490.91;6129721;23;20143;-82
2022/04/04 11:09:26;;;;;;;8.17;6.00;;;;;;;3.26;52.68;95476.19;6105152;23;20531;-82
2022/04/04 11:12:00;;;;;;;6.87;5.73;;;;;;;3.09;52.82;95470.50;6101110;23;20159;-78
2022/04/04 11:14:31;;;;;;;5.90;5.33;;;;;;;3.30;52.48;95467.38;6102367;23;20198;-81
2022/04/04 11:17:05;;;;;;;10.20;5.47;;;;;;;3.23;52.95;95464.41;6101546;23;20186;-82
2022/04/04 11:19:44;;;;;;;6.43;5.70;;;;;;;3.81;53.17;95459.56;6102030;23;20229;-82
2022/04/04 11:22:20;;;;;;;6.80;6.03;;;;;;;3.62;50.90;95454.88;6082695;23;20160;-81
2022/04/04 11:25:03;;;;;;;7.40;5.83;;;;;;;3.69;52.62;95453.50;6127823;23;20215;-83
2022/04/04 11:27:29;;;;;;;6.63;6.03;;;;;;;4.02;50.85;95455.44;6129285;23;20129;-83
2022/04/04 11:29:55;;;;;;;7.17;6.00;;;;;;;3.73;51.68;95446.44;6098323;23;20183;-83
2022/04/04 11:32:33;;;;;;;7.30;5.90;;;;;;;4.15;50.92;95445.09;6099932;23;20163;-83
2022/04/04 11:35:22;;;;;;;7.47;5.90;;;;;;;4.41;49.61;95444.00;6100516;23;20182;-84
2022/04/04 11:37:54;;;;;;;8.17;6.23;;;;;;;4.19;51.12;95441.38;6102280;23;20140;-84
2022/04/04 11:40:23;;;;;;;6.20;5.60;;;;;;;4.25;52.38;95433.22;6101703;23;20182;-84
2022/04/04 11:42:51;;;;;;;7.43;5.37;;;;;;;4.44;51.88;95427.56;6077629;23;20160;-81
2022/04/04 11:45:20;;;;;;;8.60;5.57;;;;;;;3.62;51.54;95432.59;6100155;23;20167;-84
2022/04/04 11:48:16;;;;;;;6.90;6.00;;;;;;;4.03;52.54;95431.38;6099960;23;20239;-81